Los Ebanos, Texas
Current Conditions -  °F | °C
As of 8:53 PM on Wednesday 22 Oct 2014 (Local Time) from KMFE Reporting Station
Overcast Overcast  
Wind Chill: 78°   Ceiling: 11000
Heat Index: 80°   Visibility: 10mi
Dew Point: 68°   Wind: 5mph
Humidity: 71%   Direction: 60°ENE
Pressure: 30.02"   Gusts: NA
Location:  26.24°N, 98.56°W
Report Text: KMFE 230153Z 06004KT 10SM OVC110 26/20 A3002 RMK AO2 SLP165 T02560200
Loading
Personal Weather Stations






























Interactive Weather Map
Tropical Storm Tracking
New forecast layout! Learn more

10-Day Weather Forecast

Advertisements
Track Severe Weather on mobile